sensor_id;sensor_type;location;lat;lon;timestamp;P1;durP1;ratioP1;P2;durP2;ratioP2
68479;SDS011;55469;48.934;12.050;2022-08-20T00:01:40;3.08;;;2.80;;
68479;SDS011;55469;48.934;12.050;2022-08-20T00:04:06;3.13;;;2.83;;
68479;SDS011;55469;48.934;12.050;2022-08-20T00:06:32;2.85;;;2.65;;
68479;SDS011;55469;48.934;12.050;2022-08-20T00:08:58;3.78;;;2.90;;
68479;SDS011;55469;48.934;12.050;2022-08-20T00:11:24;3.00;;;2.70;;
68479;SDS011;55469;48.934;12.050;2022-08-20T00:13:53;3.13;;;2.88;;
68479;SDS011;55469;48.934;12.050;2022-08-20T00:16:23;2.80;;;2.60;;
68479;SDS011;55469;48.934;12.050;2022-08-20T00:18:51;3.67;;;3.33;;
68479;SDS011;55469;48.934;12.050;2022-08-20T00:21:17;2.67;;;2.47;;
68479;SDS011;55469;48.934;12.050;2022-08-20T00:23:45;3.20;;;2.90;;
68479;SDS011;55469;48.934;12.050;2022-08-20T00:26:14;2.97;;;2.70;;
68479;SDS011;55469;48.934;12.050;2022-08-20T00:28:40;3.15;;;2.70;;
68479;SDS011;55469;48.934;12.050;2022-08-20T00:31:07;2.72;;;2.53;;
68479;SDS011;55469;48.934;12.050;2022-08-20T00:33:36;2.85;;;2.63;;
68479;SDS011;55469;48.934;12.050;2022-08-20T00:36:02;2.85;;;2.65;;
68479;SDS011;55469;48.934;12.050;2022-08-20T00:38:34;2.70;;;2.50;;
68479;SDS011;55469;48.934;12.050;2022-08-20T00:41:02;3.60;;;2.72;;
68479;SDS011;55469;48.934;12.050;2022-08-20T00:46:06;2.88;;;2.60;;
68479;SDS011;55469;48.934;12.050;2022-08-20T00:48:35;2.80;;;2.60;;
68479;SDS011;55469;48.934;12.050;2022-08-20T00:51:06;2.70;;;2.50;;
68479;SDS011;55469;48.934;12.050;2022-08-20T00:53:42;3.15;;;2.85;;
68479;SDS011;55469;48.934;12.050;2022-08-20T00:56:09;2.80;;;2.60;;
68479;SDS011;55469;48.934;12.050;2022-08-20T00:58:36;2.90;;;2.20;;
68479;SDS011;55469;48.934;12.050;2022-08-20T01:01:04;3.10;;;2.90;;
68479;SDS011;55469;48.934;12.050;2022-08-20T01:03:32;2.80;;;2.60;;
68479;SDS011;55469;48.934;12.050;2022-08-20T01:05:59;3.83;;;2.45;;
68479;SDS011;55469;48.934;12.050;2022-08-20T01:08:24;2.55;;;2.35;;
68479;SDS011;55469;48.934;12.050;2022-08-20T01:10:51;2.65;;;2.45;;
68479;SDS011;55469;48.934;12.050;2022-08-20T01:13:32;2.83;;;2.42;;
68479;SDS011;55469;48.934;12.050;2022-08-20T01:16:02;2.60;;;2.40;;
68479;SDS011;55469;48.934;12.050;2022-08-20T01:18:34;2.90;;;2.70;;
68479;SDS011;55469;48.934;12.050;2022-08-20T01:21:03;2.78;;;2.58;;
68479;SDS011;55469;48.934;12.050;2022-08-20T01:26:45;3.72;;;2.55;;
68479;SDS011;55469;48.934;12.050;2022-08-20T01:31:43;2.35;;;2.15;;
68479;SDS011;55469;48.934;12.050;2022-08-20T01:34:13;2.60;;;2.40;;
68479;SDS011;55469;48.934;12.050;2022-08-20T01:36:44;2.65;;;2.45;;
68479;SDS011;55469;48.934;12.050;2022-08-20T01:39:15;2.70;;;2.40;;
68479;SDS011;55469;48.934;12.050;2022-08-20T01:41:51;2.95;;;2.40;;
68479;SDS011;55469;48.934;12.050;2022-08-20T01:44:28;2.70;;;2.50;;
68479;SDS011;55469;48.934;12.050;2022-08-20T01:46:54;2.50;;;2.30;;
68479;SDS011;55469;48.934;12.050;2022-08-20T01:49:29;2.45;;;2.25;;
68479;SDS011;55469;48.934;12.050;2022-08-20T01:51:59;3.70;;;2.15;;
68479;SDS011;55469;48.934;12.050;2022-08-20T01:54:31;2.30;;;2.15;;
68479;SDS011;55469;48.934;12.050;2022-08-20T01:57:03;2.40;;;2.20;;
68479;SDS011;55469;48.934;12.050;2022-08-20T01:59:41;2.20;;;2.10;;
68479;SDS011;55469;48.934;12.050;2022-08-20T02:02:08;2.60;;;2.40;;
68479;SDS011;55469;48.934;12.050;2022-08-20T02:04:36;2.70;;;2.30;;
68479;SDS011;55469;48.934;12.050;2022-08-20T02:07:05;2.17;;;1.98;;
68479;SDS011;55469;48.934;12.050;2022-08-20T02:09:36;2.47;;;2.28;;
68479;SDS011;55469;48.934;12.050;2022-08-20T02:12:04;2.60;;;2.40;;
68479;SDS011;55469;48.934;12.050;2022-08-20T02:14:32;2.40;;;2.20;;
68479;SDS011;55469;48.934;12.050;2022-08-20T02:16:58;2.60;;;2.40;;
68479;SDS011;55469;48.934;12.050;2022-08-20T02:19:26;2.75;;;2.25;;
68479;SDS011;55469;48.934;12.050;2022-08-20T02:22:00;3.35;;;2.45;;
68479;SDS011;55469;48.934;12.050;2022-08-20T02:24:40;2.63;;;2.35;;
68479;SDS011;55469;48.934;12.050;2022-08-20T02:27:07;2.28;;;2.08;;
68479;SDS011;55469;48.934;12.050;2022-08-20T02:29:33;2.50;;;2.30;;
68479;SDS011;55469;48.934;12.050;2022-08-20T02:31:59;2.45;;;2.20;;
68479;SDS011;55469;48.934;12.050;2022-08-20T02:34:26;2.80;;;2.58;;
68479;SDS011;55469;48.934;12.050;2022-08-20T02:36:52;2.90;;;2.33;;
68479;SDS011;55469;48.934;12.050;2022-08-20T02:39:18;2.60;;;2.40;;
68479;SDS011;55469;48.934;12.050;2022-08-20T02:41:44;2.50;;;2.30;;
68479;SDS011;55469;48.934;12.050;2022-08-20T02:44:10;2.22;;;2.08;;
68479;SDS011;55469;48.934;12.050;2022-08-20T02:46:36;2.63;;;2.40;;
68479;SDS011;55469;48.934;12.050;2022-08-20T02:49:02;2.30;;;2.10;;
68479;SDS011;55469;48.934;12.050;2022-08-20T02:51:28;2.50;;;2.30;;
68479;SDS011;55469;48.934;12.050;2022-08-20T02:53:55;2.20;;;2.10;;
68479;SDS011;55469;48.934;12.050;2022-08-20T02:56:20;3.22;;;2.17;;
68479;SDS011;55469;48.934;12.050;2022-08-20T02:58:46;2.83;;;2.20;;
68479;SDS011;55469;48.934;12.050;2022-08-20T03:01:13;2.40;;;2.20;;
68479;SDS011;55469;48.934;12.050;2022-08-20T03:03:42;2.55;;;2.35;;
68479;SDS011;55469;48.934;12.050;2022-08-20T03:06:09;2.30;;;2.10;;
68479;SDS011;55469;48.934;12.050;2022-08-20T03:08:36;2.55;;;2.35;;
68479;SDS011;55469;48.934;12.050;2022-08-20T03:11:03;2.47;;;2.28;;
68479;SDS011;55469;48.934;12.050;2022-08-20T03:13:30;2.10;;;2.00;;
68479;SDS011;55469;48.934;12.050;2022-08-20T03:15:57;2.10;;;2.00;;
68479;SDS011;55469;48.934;12.050;2022-08-20T03:18:25;2.50;;;2.30;;
68479;SDS011;55469;48.934;12.050;2022-08-20T03:20:59;2.30;;;2.15;;
68479;SDS011;55469;48.934;12.050;2022-08-20T03:23:26;2.47;;;2.22;;
68479;SDS011;55469;48.934;12.050;2022-08-20T03:25:52;2.30;;;2.10;;
68479;SDS011;55469;48.934;12.050;2022-08-20T03:28:18;2.33;;;2.13;;
68479;SDS011;55469;48.934;12.050;2022-08-20T03:30:44;2.30;;;2.10;;
68479;SDS011;55469;48.934;12.050;2022-08-20T03:33:10;2.65;;;2.00;;
68479;SDS011;55469;48.934;12.050;2022-08-20T03:35:36;2.42;;;2.22;;
68479;SDS011;55469;48.934;12.050;2022-08-20T03:38:07;2.13;;;1.92;;
68479;SDS011;55469;48.934;12.050;2022-08-20T03:40:35;2.50;;;2.30;;
68479;SDS011;55469;48.934;12.050;2022-08-20T03:43:02;2.13;;;2.00;;
68479;SDS011;55469;48.934;12.050;2022-08-20T03:45:32;2.40;;;2.00;;
68479;SDS011;55469;48.934;12.050;2022-08-20T03:48:00;2.53;;;2.30;;
68479;SDS011;55469;48.934;12.050;2022-08-20T03:50:28;2.10;;;2.00;;
68479;SDS011;55469;48.934;12.050;2022-08-20T03:52:56;2.20;;;2.10;;
68479;SDS011;55469;48.934;12.050;2022-08-20T03:55:24;2.28;;;2.10;;
68479;SDS011;55469;48.934;12.050;2022-08-20T03:57:53;2.22;;;2.03;;
68479;SDS011;55469;48.934;12.050;2022-08-20T04:00:25;2.45;;;2.25;;
68479;SDS011;55469;48.934;12.050;2022-08-20T04:03:03;2.00;;;1.90;;
68479;SDS011;55469;48.934;12.050;2022-08-20T04:05:30;2.47;;;2.30;;
68479;SDS011;55469;48.934;12.050;2022-08-20T04:07:58;2.42;;;2.22;;
68479;SDS011;55469;48.934;12.050;2022-08-20T04:10:26;2.40;;;2.20;;
68479;SDS011;55469;48.934;12.050;2022-08-20T04:12:53;2.40;;;2.20;;
68479;SDS011;55469;48.934;12.050;2022-08-20T04:15:20;2.05;;;1.95;;
68479;SDS011;55469;48.934;12.050;2022-08-20T04:17:47;2.10;;;1.90;;
68479;SDS011;55469;48.934;12.050;2022-08-20T04:20:15;2.30;;;2.10;;
68479;SDS011;55469;48.934;12.050;2022-08-20T04:22:48;2.55;;;2.30;;
68479;SDS011;55469;48.934;12.050;2022-08-20T04:25:15;2.28;;;1.95;;
68479;SDS011;55469;48.934;12.050;2022-08-20T04:27:41;2.47;;;2.22;;
68479;SDS011;55469;48.934;12.050;2022-08-20T04:30:09;2.58;;;2.38;;
68479;SDS011;55469;48.934;12.050;2022-08-20T04:32:37;2.30;;;2.10;;
68479;SDS011;55469;48.934;12.050;2022-08-20T04:35:03;2.30;;;2.10;;
68479;SDS011;55469;48.934;12.050;2022-08-20T04:37:31;2.42;;;2.22;;
68479;SDS011;55469;48.934;12.050;2022-08-20T04:39:58;2.50;;;2.30;;
68479;SDS011;55469;48.934;12.050;2022-08-20T04:42:52;2.00;;;1.90;;
68479;SDS011;55469;48.934;12.050;2022-08-20T04:45:17;2.40;;;2.20;;
68479;SDS011;55469;48.934;12.050;2022-08-20T04:47:43;2.33;;;2.10;;
68479;SDS011;55469;48.934;12.050;2022-08-20T04:50:10;2.53;;;2.30;;
68479;SDS011;55469;48.934;12.050;2022-08-20T04:52:37;2.58;;;2.38;;
68479;SDS011;55469;48.934;12.050;2022-08-20T04:55:04;2.40;;;2.20;;
68479;SDS011;55469;48.934;12.050;2022-08-20T04:57:30;2.20;;;1.98;;
68479;SDS011;55469;48.934;12.050;2022-08-20T04:59:57;2.30;;;2.13;;
68479;SDS011;55469;48.934;12.050;2022-08-20T05:02:23;2.28;;;2.08;;
68479;SDS011;55469;48.934;12.050;2022-08-20T05:04:49;2.60;;;2.38;;
68479;SDS011;55469;48.934;12.050;2022-08-20T05:07:15;2.17;;;1.90;;
68479;SDS011;55469;48.934;12.050;2022-08-20T05:09:44;2.50;;;2.20;;
68479;SDS011;55469;48.934;12.050;2022-08-20T05:12:10;2.33;;;2.13;;
68479;SDS011;55469;48.934;12.050;2022-08-20T05:14:39;2.30;;;2.10;;
68479;SDS011;55469;48.934;12.050;2022-08-20T05:17:06;2.28;;;2.13;;
68479;SDS011;55469;48.934;12.050;2022-08-20T05:19:33;2.58;;;2.00;;
68479;SDS011;55469;48.934;12.050;2022-08-20T05:22:04;2.40;;;2.20;;
68479;SDS011;55469;48.934;12.050;2022-08-20T05:24:30;2.35;;;2.15;;
68479;SDS011;55469;48.934;12.050;2022-08-20T05:26:56;2.40;;;2.20;;
68479;SDS011;55469;48.934;12.050;2022-08-20T05:29:24;2.45;;;2.25;;
68479;SDS011;55469;48.934;12.050;2022-08-20T05:31:51;2.95;;;2.17;;
68479;SDS011;55469;48.934;12.050;2022-08-20T05:34:18;2.13;;;2.00;;
68479;SDS011;55469;48.934;12.050;2022-08-20T05:36:45;2.00;;;1.90;;
68479;SDS011;55469;48.934;12.050;2022-08-20T05:39:14;2.40;;;2.20;;
68479;SDS011;55469;48.934;12.050;2022-08-20T05:41:42;2.50;;;2.30;;
68479;SDS011;55469;48.934;12.050;2022-08-20T05:44:08;2.95;;;2.50;;
68479;SDS011;55469;48.934;12.050;2022-08-20T05:46:37;2.50;;;2.30;;
68479;SDS011;55469;48.934;12.050;2022-08-20T05:49:08;3.35;;;2.40;;
68479;SDS011;55469;48.934;12.050;2022-08-20T05:51:37;2.47;;;2.28;;
68479;SDS011;55469;48.934;12.050;2022-08-20T05:54:03;2.40;;;2.20;;
68479;SDS011;55469;48.934;12.050;2022-08-20T05:56:31;2.90;;;2.53;;
68479;SDS011;55469;48.934;12.050;2022-08-20T05:58:58;2.80;;;2.60;;
68479;SDS011;55469;48.934;12.050;2022-08-20T06:01:29;2.80;;;2.33;;
68479;SDS011;55469;48.934;12.050;2022-08-20T06:03:56;2.40;;;2.20;;
68479;SDS011;55469;48.934;12.050;2022-08-20T06:06:40;2.53;;;2.33;;
68479;SDS011;55469;48.934;12.050;2022-08-20T06:09:07;2.50;;;2.30;;
68479;SDS011;55469;48.934;12.050;2022-08-20T06:11:33;2.58;;;2.38;;
68479;SDS011;55469;48.934;12.050;2022-08-20T06:13:59;2.75;;;2.33;;
68479;SDS011;55469;48.934;12.050;2022-08-20T06:16:25;2.47;;;2.28;;
68479;SDS011;55469;48.934;12.050;2022-08-20T06:18:51;2.45;;;2.25;;
68479;SDS011;55469;48.934;12.050;2022-08-20T06:21:16;2.72;;;2.35;;
68479;SDS011;55469;48.934;12.050;2022-08-20T06:23:42;2.42;;;2.22;;
68479;SDS011;55469;48.934;12.050;2022-08-20T06:26:08;2.58;;;2.38;;
68479;SDS011;55469;48.934;12.050;2022-08-20T06:28:34;2.65;;;2.45;;
68479;SDS011;55469;48.934;12.050;2022-08-20T06:31:00;2.78;;;2.42;;
68479;SDS011;55469;48.934;12.050;2022-08-20T06:33:26;2.60;;;2.40;;
68479;SDS011;55469;48.934;12.050;2022-08-20T06:35:52;2.58;;;2.38;;
68479;SDS011;55469;48.934;12.050;2022-08-20T06:38:19;2.70;;;2.50;;
68479;SDS011;55469;48.934;12.050;2022-08-20T06:40:45;2.60;;;2.40;;
68479;SDS011;55469;48.934;12.050;2022-08-20T06:43:11;2.63;;;2.42;;
68479;SDS011;55469;48.934;12.050;2022-08-20T06:45:37;2.70;;;2.50;;
68479;SDS011;55469;48.934;12.050;2022-08-20T06:48:05;2.35;;;2.17;;
68479;SDS011;55469;48.934;12.050;2022-08-20T06:50:39;3.85;;;2.67;;
68479;SDS011;55469;48.934;12.050;2022-08-20T06:53:09;2.60;;;2.40;;
68479;SDS011;55469;48.934;12.050;2022-08-20T06:55:39;3.20;;;2.90;;
68479;SDS011;55469;48.934;12.050;2022-08-20T06:58:08;2.70;;;2.50;;
68479;SDS011;55469;48.934;12.050;2022-08-20T07:00:37;3.30;;;3.00;;
68479;SDS011;55469;48.934;12.050;2022-08-20T07:03:06;2.97;;;2.60;;
68479;SDS011;55469;48.934;12.050;2022-08-20T07:05:33;3.60;;;3.30;;
68479;SDS011;55469;48.934;12.050;2022-08-20T07:08:02;2.80;;;2.60;;
68479;SDS011;55469;48.934;12.050;2022-08-20T07:10:29;3.05;;;2.80;;
68479;SDS011;55469;48.934;12.050;2022-08-20T07:12:56;2.85;;;2.65;;
68479;SDS011;55469;48.934;12.050;2022-08-20T07:15:24;2.85;;;2.65;;
68479;SDS011;55469;48.934;12.050;2022-08-20T07:18:00;3.08;;;2.78;;
68479;SDS011;55469;48.934;12.050;2022-08-20T07:20:29;3.30;;;2.80;;
68479;SDS011;55469;48.934;12.050;2022-08-20T07:22:57;3.90;;;3.00;;
68479;SDS011;55469;48.934;12.050;2022-08-20T07:25:24;3.10;;;2.80;;
68479;SDS011;55469;48.934;12.050;2022-08-20T07:27:50;3.10;;;2.90;;
68479;SDS011;55469;48.934;12.050;2022-08-20T07:30:23;3.90;;;2.95;;
68479;SDS011;55469;48.934;12.050;2022-08-20T07:33:10;4.53;;;3.00;;
68479;SDS011;55469;48.934;12.050;2022-08-20T07:35:38;3.75;;;3.00;;
68479;SDS011;55469;48.934;12.050;2022-08-20T07:38:05;3.17;;;2.88;;
68479;SDS011;55469;48.934;12.050;2022-08-20T07:40:33;3.47;;;2.80;;
68479;SDS011;55469;48.934;12.050;2022-08-20T07:42:59;3.35;;;3.00;;
68479;SDS011;55469;48.934;12.050;2022-08-20T07:45:27;3.30;;;3.00;;
68479;SDS011;55469;48.934;12.050;2022-08-20T07:48:00;4.88;;;4.10;;
68479;SDS011;55469;48.934;12.050;2022-08-20T07:50:32;3.17;;;2.97;;
68479;SDS011;55469;48.934;12.050;2022-08-20T07:52:58;3.60;;;3.10;;
68479;SDS011;55469;48.934;12.050;2022-08-20T07:55:25;3.10;;;2.80;;
68479;SDS011;55469;48.934;12.050;2022-08-20T07:57:51;3.53;;;3.03;;
68479;SDS011;55469;48.934;12.050;2022-08-20T08:00:18;3.75;;;3.45;;
68479;SDS011;55469;48.934;12.050;2022-08-20T08:02:49;3.70;;;3.33;;
68479;SDS011;55469;48.934;12.050;2022-08-20T08:05:16;3.80;;;3.40;;
68479;SDS011;55469;48.934;12.050;2022-08-20T08:07:42;3.88;;;3.55;;
68479;SDS011;55469;48.934;12.050;2022-08-20T08:10:11;3.92;;;3.45;;
68479;SDS011;55469;48.934;12.050;2022-08-20T08:12:44;3.60;;;3.30;;
68479;SDS011;55469;48.934;12.050;2022-08-20T08:15:15;3.40;;;3.10;;
68479;SDS011;55469;48.934;12.050;2022-08-20T08:17:46;4.25;;;3.85;;
68479;SDS011;55469;48.934;12.050;2022-08-20T08:20:14;4.00;;;3.53;;
68479;SDS011;55469;48.934;12.050;2022-08-20T08:22:41;5.38;;;4.47;;
68479;SDS011;55469;48.934;12.050;2022-08-20T08:25:12;5.38;;;4.85;;
68479;SDS011;55469;48.934;12.050;2022-08-20T08:27:40;4.18;;;3.75;;
68479;SDS011;55469;48.934;12.050;2022-08-20T08:30:07;4.20;;;3.80;;
68479;SDS011;55469;48.934;12.050;2022-08-20T08:32:38;4.13;;;3.72;;
68479;SDS011;55469;48.934;12.050;2022-08-20T08:35:24;4.55;;;4.07;;
68479;SDS011;55469;48.934;12.050;2022-08-20T08:37:50;4.15;;;3.70;;
68479;SDS011;55469;48.934;12.050;2022-08-20T08:40:16;4.00;;;3.60;;
68479;SDS011;55469;48.934;12.050;2022-08-20T08:42:43;3.88;;;3.58;;
68479;SDS011;55469;48.934;12.050;2022-08-20T08:45:19;5.15;;;4.65;;
68479;SDS011;55469;48.934;12.050;2022-08-20T08:47:45;4.82;;;3.88;;
68479;SDS011;55469;48.934;12.050;2022-08-20T08:50:17;5.38;;;4.20;;
68479;SDS011;55469;48.934;12.050;2022-08-20T08:52:56;4.90;;;4.40;;
68479;SDS011;55469;48.934;12.050;2022-08-20T08:55:25;4.45;;;4.05;;
68479;SDS011;55469;48.934;12.050;2022-08-20T08:57:55;4.50;;;4.10;;
68479;SDS011;55469;48.934;12.050;2022-08-20T09:00:24;5.85;;;5.25;;
68479;SDS011;55469;48.934;12.050;2022-08-20T09:02:58;6.15;;;4.80;;
68479;SDS011;55469;48.934;12.050;2022-08-20T09:05:53;4.43;;;3.97;;
68479;SDS011;55469;48.934;12.050;2022-08-20T09:08:25;4.55;;;4.15;;
68479;SDS011;55469;48.934;12.050;2022-08-20T09:11:01;4.55;;;4.15;;
68479;SDS011;55469;48.934;12.050;2022-08-20T09:13:31;5.25;;;4.75;;
68479;SDS011;55469;48.934;12.050;2022-08-20T09:15:57;6.93;;;4.65;;
68479;SDS011;55469;48.934;12.050;2022-08-20T09:18:24;5.35;;;4.85;;
68479;SDS011;55469;48.934;12.050;2022-08-20T09:20:49;5.35;;;4.70;;
68479;SDS011;55469;48.934;12.050;2022-08-20T09:23:15;6.97;;;4.78;;
68479;SDS011;55469;48.934;12.050;2022-08-20T09:25:41;26.35;;;20.05;;
68479;SDS011;55469;48.934;12.050;2022-08-20T09:28:07;25.40;;;19.77;;
68479;SDS011;55469;48.934;12.050;2022-08-20T09:30:33;25.77;;;20.77;;
68479;SDS011;55469;48.934;12.050;2022-08-20T09:32:59;24.05;;;18.42;;
68479;SDS011;55469;48.934;12.050;2022-08-20T09:35:25;26.67;;;19.10;;
68479;SDS011;55469;48.934;12.050;2022-08-20T09:37:51;26.13;;;19.08;;
68479;SDS011;55469;48.934;12.050;2022-08-20T09:40:17;26.73;;;19.38;;
68479;SDS011;55469;48.934;12.050;2022-08-20T09:42:43;27.63;;;19.55;;
68479;SDS011;55469;48.934;12.050;2022-08-20T09:45:11;24.17;;;19.02;;
68479;SDS011;55469;48.934;12.050;2022-08-20T09:47:38;26.10;;;20.05;;
68479;SDS011;55469;48.934;12.050;2022-08-20T09:50:05;27.13;;;19.35;;
68479;SDS011;55469;48.934;12.050;2022-08-20T09:52:36;234.65;;;91.13;;
68479;SDS011;55469;48.934;12.050;2022-08-20T10:00:46;27.38;;;19.70;;
68479;SDS011;55469;48.934;12.050;2022-08-20T10:03:12;50.35;;;30.60;;
68479;SDS011;55469;48.934;12.050;2022-08-20T10:05:39;25.48;;;18.83;;
68479;SDS011;55469;48.934;12.050;2022-08-20T10:08:05;29.88;;;20.08;;
68479;SDS011;55469;48.934;12.050;2022-08-20T10:10:33;26.48;;;19.40;;
68479;SDS011;55469;48.934;12.050;2022-08-20T10:12:59;23.45;;;18.48;;
68479;SDS011;55469;48.934;12.050;2022-08-20T10:15:26;28.08;;;19.55;;
68479;SDS011;55469;48.934;12.050;2022-08-20T10:17:53;26.75;;;20.70;;
68479;SDS011;55469;48.934;12.050;2022-08-20T10:20:20;24.60;;;18.60;;
68479;SDS011;55469;48.934;12.050;2022-08-20T10:22:48;24.50;;;18.55;;
68479;SDS011;55469;48.934;12.050;2022-08-20T10:25:14;24.90;;;18.33;;
68479;SDS011;55469;48.934;12.050;2022-08-20T10:27:41;27.63;;;19.67;;
68479;SDS011;55469;48.934;12.050;2022-08-20T10:30:08;24.85;;;18.10;;
68479;SDS011;55469;48.934;12.050;2022-08-20T10:32:34;26.65;;;20.83;;
68479;SDS011;55469;48.934;12.050;2022-08-20T10:35:00;26.95;;;21.08;;
68479;SDS011;55469;48.934;12.050;2022-08-20T10:37:27;27.33;;;20.80;;
68479;SDS011;55469;48.934;12.050;2022-08-20T10:39:54;23.08;;;18.67;;
68479;SDS011;55469;48.934;12.050;2022-08-20T10:42:20;21.00;;;17.17;;
68479;SDS011;55469;48.934;12.050;2022-08-20T10:44:46;20.30;;;16.27;;
68479;SDS011;55469;48.934;12.050;2022-08-20T10:47:16;19.75;;;15.68;;
68479;SDS011;55469;48.934;12.050;2022-08-20T10:52:13;16.52;;;14.02;;
68479;SDS011;55469;48.934;12.050;2022-08-20T10:54:39;15.73;;;12.77;;
68479;SDS011;55469;48.934;12.050;2022-08-20T10:57:06;14.40;;;12.82;;
68479;SDS011;55469;48.934;12.050;2022-08-20T10:59:46;13.52;;;12.13;;
68479;SDS011;55469;48.934;12.050;2022-08-20T11:02:14;13.15;;;11.75;;
68479;SDS011;55469;48.934;12.050;2022-08-20T11:04:41;13.73;;;11.25;;
68479;SDS011;55469;48.934;12.050;2022-08-20T11:07:18;13.73;;;11.57;;
68479;SDS011;55469;48.934;12.050;2022-08-20T11:09:55;14.32;;;12.40;;
68479;SDS011;55469;48.934;12.050;2022-08-20T11:12:22;12.65;;;11.05;;
68479;SDS011;55469;48.934;12.050;2022-08-20T11:14:48;12.52;;;10.68;;
68479;SDS011;55469;48.934;12.050;2022-08-20T11:17:19;13.82;;;10.85;;
68479;SDS011;55469;48.934;12.050;2022-08-20T11:19:55;13.55;;;10.40;;
68479;SDS011;55469;48.934;12.050;2022-08-20T11:22:22;11.23;;;10.02;;
68479;SDS011;55469;48.934;12.050;2022-08-20T11:24:48;11.20;;;10.00;;
68479;SDS011;55469;48.934;12.050;2022-08-20T11:27:16;11.40;;;10.18;;
68479;SDS011;55469;48.934;12.050;2022-08-20T11:29:50;11.65;;;9.75;;
68479;SDS011;55469;48.934;12.050;2022-08-20T11:32:16;11.27;;;9.98;;
68479;SDS011;55469;48.934;12.050;2022-08-20T11:34:43;11.52;;;9.65;;
68479;SDS011;55469;48.934;12.050;2022-08-20T11:37:09;10.80;;;9.60;;
68479;SDS011;55469;48.934;12.050;2022-08-20T11:39:36;10.43;;;9.30;;
68479;SDS011;55469;48.934;12.050;2022-08-20T11:42:02;9.38;;;8.38;;
68479;SDS011;55469;48.934;12.050;2022-08-20T11:44:28;9.82;;;8.82;;
68479;SDS011;55469;48.934;12.050;2022-08-20T11:46:53;10.35;;;9.25;;
68479;SDS011;55469;48.934;12.050;2022-08-20T11:49:22;9.73;;;8.73;;
68479;SDS011;55469;48.934;12.050;2022-08-20T11:51:47;9.27;;;8.32;;
68479;SDS011;55469;48.934;12.050;2022-08-20T11:54:13;9.88;;;8.70;;
68479;SDS011;55469;48.934;12.050;2022-08-20T11:56:39;9.27;;;8.25;;
68479;SDS011;55469;48.934;12.050;2022-08-20T11:59:04;9.52;;;8.57;;
68479;SDS011;55469;48.934;12.050;2022-08-20T12:01:30;9.50;;;8.38;;
68479;SDS011;55469;48.934;12.050;2022-08-20T12:03:56;8.75;;;7.88;;
68479;SDS011;55469;48.934;12.050;2022-08-20T12:06:22;8.82;;;7.93;;
68479;SDS011;55469;48.934;12.050;2022-08-20T12:08:47;9.02;;;8.13;;
68479;SDS011;55469;48.934;12.050;2022-08-20T12:11:13;8.88;;;7.97;;
68479;SDS011;55469;48.934;12.050;2022-08-20T12:13:39;8.70;;;7.80;;
68479;SDS011;55469;48.934;12.050;2022-08-20T12:16:05;8.57;;;7.78;;
68479;SDS011;55469;48.934;12.050;2022-08-20T12:18:30;8.30;;;7.47;;
68479;SDS011;55469;48.934;12.050;2022-08-20T12:20:56;9.20;;;8.30;;
68479;SDS011;55469;48.934;12.050;2022-08-20T12:23:22;8.57;;;7.68;;
68479;SDS011;55469;48.934;12.050;2022-08-20T12:25:48;8.73;;;7.53;;
68479;SDS011;55469;48.934;12.050;2022-08-20T12:28:14;8.20;;;7.40;;
68479;SDS011;55469;48.934;12.050;2022-08-20T12:30:41;8.27;;;7.47;;
68479;SDS011;55469;48.934;12.050;2022-08-20T12:33:06;8.05;;;7.28;;
68479;SDS011;55469;48.934;12.050;2022-08-20T12:35:32;8.18;;;7.38;;
68479;SDS011;55469;48.934;12.050;2022-08-20T12:38:03;8.00;;;7.20;;
68479;SDS011;55469;48.934;12.050;2022-08-20T12:40:29;7.93;;;7.13;;
68479;SDS011;55469;48.934;12.050;2022-08-20T12:42:56;8.27;;;7.47;;
68479;SDS011;55469;48.934;12.050;2022-08-20T12:45:22;7.85;;;7.03;;
68479;SDS011;55469;48.934;12.050;2022-08-20T12:47:48;7.72;;;6.88;;
68479;SDS011;55469;48.934;12.050;2022-08-20T12:50:15;7.68;;;6.88;;
68479;SDS011;55469;48.934;12.050;2022-08-20T12:52:46;7.78;;;7.07;;
68479;SDS011;55469;48.934;12.050;2022-08-20T12:55:13;7.85;;;7.15;;
68479;SDS011;55469;48.934;12.050;2022-08-20T12:57:43;8.65;;;7.85;;
68479;SDS011;55469;48.934;12.050;2022-08-20T13:00:16;7.43;;;6.72;;
68479;SDS011;55469;48.934;12.050;2022-08-20T13:02:49;7.20;;;6.57;;
68479;SDS011;55469;48.934;12.050;2022-08-20T13:05:17;7.53;;;6.82;;
68479;SDS011;55469;48.934;12.050;2022-08-20T13:07:44;8.68;;;7.78;;
68479;SDS011;55469;48.934;12.050;2022-08-20T13:10:12;8.10;;;7.30;;
68479;SDS011;55469;48.934;12.050;2022-08-20T13:12:48;7.80;;;7.05;;
68479;SDS011;55469;48.934;12.050;2022-08-20T13:15:14;7.70;;;7.00;;
68479;SDS011;55469;48.934;12.050;2022-08-20T13:17:40;7.63;;;6.57;;
68479;SDS011;55469;48.934;12.050;2022-08-20T13:20:07;7.25;;;6.55;;
68479;SDS011;55469;48.934;12.050;2022-08-20T13:22:38;7.90;;;7.10;;
68479;SDS011;55469;48.934;12.050;2022-08-20T13:25:04;7.60;;;6.80;;
68479;SDS011;55469;48.934;12.050;2022-08-20T13:27:31;7.53;;;6.82;;
68479;SDS011;55469;48.934;12.050;2022-08-20T13:29:58;7.70;;;6.90;;
68479;SDS011;55469;48.934;12.050;2022-08-20T13:32:23;7.20;;;6.53;;
68479;SDS011;55469;48.934;12.050;2022-08-20T13:34:50;7.30;;;6.60;;
68479;SDS011;55469;48.934;12.050;2022-08-20T13:37:17;7.78;;;7.07;;
68479;SDS011;55469;48.934;12.050;2022-08-20T13:39:46;7.57;;;6.70;;
68479;SDS011;55469;48.934;12.050;2022-08-20T13:42:13;8.15;;;6.90;;
68479;SDS011;55469;48.934;12.050;2022-08-20T13:44:39;7.45;;;6.75;;
68479;SDS011;55469;48.934;12.050;2022-08-20T13:47:15;7.28;;;6.60;;
68479;SDS011;55469;48.934;12.050;2022-08-20T13:49:46;7.00;;;6.30;;
68479;SDS011;55469;48.934;12.050;2022-08-20T13:52:18;7.20;;;6.50;;
68479;SDS011;55469;48.934;12.050;2022-08-20T13:54:44;7.65;;;6.32;;
68479;SDS011;55469;48.934;12.050;2022-08-20T13:57:10;7.25;;;6.55;;
68479;SDS011;55469;48.934;12.050;2022-08-20T13:59:39;6.82;;;6.22;;
68479;SDS011;55469;48.934;12.050;2022-08-20T14:02:08;7.07;;;6.38;;
68479;SDS011;55469;48.934;12.050;2022-08-20T14:04:35;6.50;;;5.95;;
68479;SDS011;55469;48.934;12.050;2022-08-20T14:07:13;6.88;;;6.18;;
68479;SDS011;55469;48.934;12.050;2022-08-20T14:09:55;7.07;;;6.32;;
68479;SDS011;55469;48.934;12.050;2022-08-20T14:12:25;7.32;;;6.53;;
68479;SDS011;55469;48.934;12.050;2022-08-20T14:14:52;7.30;;;6.60;;
68479;SDS011;55469;48.934;12.050;2022-08-20T14:19:55;6.30;;;5.80;;
68479;SDS011;55469;48.934;12.050;2022-08-20T14:22:24;6.22;;;5.63;;
68479;SDS011;55469;48.934;12.050;2022-08-20T14:24:50;7.50;;;6.80;;
68479;SDS011;55469;48.934;12.050;2022-08-20T14:27:17;6.63;;;6.03;;
68479;SDS011;55469;48.934;12.050;2022-08-20T14:29:45;6.68;;;5.97;;
68479;SDS011;55469;48.934;12.050;2022-08-20T14:32:13;6.57;;;5.97;;
68479;SDS011;55469;48.934;12.050;2022-08-20T14:34:40;6.57;;;5.97;;
68479;SDS011;55469;48.934;12.050;2022-08-20T14:39:40;6.50;;;5.90;;
68479;SDS011;55469;48.934;12.050;2022-08-20T14:42:07;5.93;;;5.43;;
68479;SDS011;55469;48.934;12.050;2022-08-20T14:44:33;6.00;;;5.50;;
68479;SDS011;55469;48.934;12.050;2022-08-20T14:47:13;6.45;;;5.85;;
68479;SDS011;55469;48.934;12.050;2022-08-20T14:49:43;5.72;;;5.22;;
68479;SDS011;55469;48.934;12.050;2022-08-20T14:52:11;6.00;;;5.40;;
68479;SDS011;55469;48.934;12.050;2022-08-20T14:54:38;6.25;;;5.65;;
68479;SDS011;55469;48.934;12.050;2022-08-20T14:57:05;6.47;;;5.88;;
68479;SDS011;55469;48.934;12.050;2022-08-20T14:59:31;5.93;;;5.43;;